KAL017 LFPG-ESSA
Flight info
| Callsign | KAL017 |
|---|---|
| Flight time | 2h 6m |
| Altitude | 36000 |
| Route | NURMO DCT CMB DCT VEKIN/N0481F380 DCT ADUTO N873 VICOT/N0480F370 DCT AMRAK DCT MIKNA N851 PELUP Z226 NILUG |
| Aircraft | B77W/H-SDE1E2E3FGHIJ2J3J4J5M1RWXY/LB1D1 |
Departure
| Time | 2026-05-07 15:33 |
|---|---|
| Airport | Charles de Gaulle International Airport (LFPG) |
Arrival
| Time | 2026-05-07 17:40 |
|---|---|
| Airport | Stockholm-Arlanda Airport (ESSA) |
| Time | Latitude | Longitude | Altitude | Speed | Heading |
|---|---|---|---|---|---|
| 2026-05-07 15:23 | 48.99947 | 2.57134 | 365 ft | 5 kts | 264° |
| 2026-05-07 15:23 | 48.99941 | 2.57034 | 363 ft | 15 kts | 265° |
| 2026-05-07 15:23 | 48.99933 | 2.56878 | 359 ft | 15 kts | 266° |
| 2026-05-07 15:23 | 48.99924 | 2.56686 | 362 ft | 20 kts | 265° |
| 2026-05-07 15:24 | 48.99912 | 2.56475 | 364 ft | 20 kts | 265° |
| 2026-05-07 15:24 | 48.99902 | 2.56265 | 365 ft | 20 kts | 265° |
| 2026-05-07 15:24 | 48.99890 | 2.56055 | 359 ft | 20 kts | 265° |
| 2026-05-07 15:24 | 48.99907 | 2.55847 | 364 ft | 20 kts | 285° |
| 2026-05-07 15:25 | 48.99967 | 2.55661 | 364 ft | 20 kts | 300° |
| 2026-05-07 15:25 | 48.99984 | 2.55462 | 365 ft | 20 kts | 265° |
| 2026-05-07 15:25 | 48.99974 | 2.55253 | 365 ft | 16 kts | 265° |
| 2026-05-07 15:25 | 48.99972 | 2.55202 | 363 ft | 4 kts | 265° |
| 2026-05-07 15:26 | 48.99969 | 2.55153 | 359 ft | 5 kts | 265° |
| 2026-05-07 15:26 | 48.99966 | 2.55097 | 359 ft | 5 kts | 265° |
| 2026-05-07 15:26 | 48.99959 | 2.55038 | 368 ft | 6 kts | 244° |
| 2026-05-07 15:26 | 48.99923 | 2.55010 | 365 ft | 6 kts | 180° |
| 2026-05-07 15:27 | 48.99874 | 2.55025 | 368 ft | 9 kts | 163° |
| 2026-05-07 15:27 | 48.99810 | 2.55054 | 363 ft | 10 kts | 165° |
| 2026-05-07 15:27 | 48.99767 | 2.55070 | 363 ft | 0 kts | 166° |
| 2026-05-07 15:27 | 48.99764 | 2.55072 | 363 ft | 1 kts | 166° |
| 2026-05-07 15:28 | 48.99762 | 2.55073 | 364 ft | 0 kts | 166° |
| 2026-05-07 15:28 | 48.99758 | 2.55074 | 365 ft | 1 kts | 166° |
| 2026-05-07 15:28 | 48.99738 | 2.55082 | 364 ft | 7 kts | 165° |
| 2026-05-07 15:28 | 48.99690 | 2.55104 | 363 ft | 7 kts | 160° |
| 2026-05-07 15:29 | 48.99678 | 2.55118 | 368 ft | 0 kts | 136° |
| 2026-05-07 15:29 | 48.99674 | 2.55123 | 368 ft | 1 kts | 136° |
| 2026-05-07 15:29 | 48.99673 | 2.55126 | 368 ft | 0 kts | 136° |
| 2026-05-07 15:29 | 48.99670 | 2.55129 | 368 ft | 1 kts | 136° |
| 2026-05-07 15:30 | 48.99666 | 2.55138 | 366 ft | 1 kts | 128° |
| 2026-05-07 15:30 | 48.99659 | 2.55154 | 366 ft | 2 kts | 125° |
| 2026-05-07 15:30 | 48.99630 | 2.55231 | 367 ft | 14 kts | 116° |
| 2026-05-07 15:30 | 48.99581 | 2.55364 | 363 ft | 15 kts | 102° |
| 2026-05-07 15:31 | 48.99580 | 2.55453 | 359 ft | 0 kts | 85° |
| 2026-05-07 15:31 | 48.99581 | 2.55456 | 360 ft | 0 kts | 85° |
| 2026-05-07 15:31 | 48.99581 | 2.55461 | 362 ft | 1 kts | 85° |
| 2026-05-07 15:31 | 48.99581 | 2.55469 | 362 ft | 0 kts | 85° |
| 2026-05-07 15:32 | 48.99581 | 2.55470 | 362 ft | 0 kts | 85° |
| 2026-05-07 15:32 | 48.99582 | 2.55477 | 362 ft | 1 kts | 85° |
| 2026-05-07 15:32 | 48.99582 | 2.55483 | 362 ft | 0 kts | 85° |
| 2026-05-07 15:32 | 48.99589 | 2.55635 | 362 ft | 45 kts | 85° |
| 2026-05-07 15:33 | 48.99646 | 2.56597 | 364 ft | 135 kts | 86° |
| 2026-05-07 15:33 | 48.99749 | 2.58343 | 571 ft | 186 kts | 82° |
| 2026-05-07 15:33 | 48.99947 | 2.60506 | 967 ft | 214 kts | 84° |
| 2026-05-07 15:33 | 49.00035 | 2.62745 | 2106 ft | 215 kts | 86° |
| 2026-05-07 15:34 | 49.00128 | 2.65137 | 2615 ft | 237 kts | 85° |
| 2026-05-07 15:34 | 49.00249 | 2.67687 | 3355 ft | 245 kts | 85° |
| 2026-05-07 15:34 | 49.00385 | 2.70318 | 4165 ft | 252 kts | 85° |
| 2026-05-07 15:34 | 49.00519 | 2.73030 | 4935 ft | 262 kts | 85° |
| 2026-05-07 15:35 | 49.00659 | 2.75832 | 5739 ft | 269 kts | 86° |
| 2026-05-07 15:35 | 49.00804 | 2.78699 | 6633 ft | 272 kts | 86° |
| 2026-05-07 15:35 | 49.00886 | 2.80302 | 7114 ft | 275 kts | 86° |
| 2026-05-07 15:35 | 49.00895 | 2.80478 | 7167 ft | 275 kts | 86° |
| 2026-05-07 15:36 | 49.01070 | 2.83374 | 7955 ft | 278 kts | 79° |
| 2026-05-07 15:36 | 49.01879 | 2.86072 | 8587 ft | 288 kts | 48° |
| 2026-05-07 15:36 | 49.03504 | 2.87829 | 9426 ft | 291 kts | 19° |
| 2026-05-07 15:36 | 49.05489 | 2.88344 | 10264 ft | 291 kts | 358° |
| 2026-05-07 15:37 | 49.07564 | 2.88124 | 10711 ft | 310 kts | 353° |
| 2026-05-07 15:37 | 49.09804 | 2.87750 | 10925 ft | 338 kts | 352° |
| 2026-05-07 15:37 | 49.12239 | 2.87308 | 11158 ft | 365 kts | 352° |
| 2026-05-07 15:37 | 49.14810 | 2.86840 | 11868 ft | 378 kts | 352° |
| 2026-05-07 15:38 | 49.17449 | 2.86372 | 12840 ft | 384 kts | 352° |
| 2026-05-07 15:38 | 49.20124 | 2.85909 | 13911 ft | 389 kts | 352° |
| 2026-05-07 15:38 | 49.22837 | 2.85449 | 14873 ft | 394 kts | 352° |
| 2026-05-07 15:38 | 49.25575 | 2.84991 | 15814 ft | 399 kts | 352° |
| 2026-05-07 15:39 | 49.27457 | 2.84679 | 16453 ft | 403 kts | 352° |
| 2026-05-07 15:39 | 49.31181 | 2.84062 | 17676 ft | 411 kts | 352° |
| 2026-05-07 15:39 | 49.34044 | 2.83590 | 18563 ft | 416 kts | 352° |
| 2026-05-07 15:39 | 49.36946 | 2.83111 | 19372 ft | 421 kts | 352° |
| 2026-05-07 15:40 | 49.39873 | 2.82628 | 20195 ft | 425 kts | 352° |
| 2026-05-07 15:40 | 49.42837 | 2.82138 | 20996 ft | 430 kts | 352° |
| 2026-05-07 15:40 | 49.45825 | 2.81643 | 21777 ft | 435 kts | 352° |
| 2026-05-07 15:40 | 49.48861 | 2.81139 | 22547 ft | 440 kts | 352° |
| 2026-05-07 15:41 | 49.51932 | 2.80628 | 22848 ft | 450 kts | 352° |
| 2026-05-07 15:41 | 49.55078 | 2.80104 | 22949 ft | 458 kts | 352° |
| 2026-05-07 15:41 | 49.58260 | 2.79574 | 23520 ft | 461 kts | 352° |
| 2026-05-07 15:41 | 49.61445 | 2.79044 | 24002 ft | 460 kts | 352° |
| 2026-05-07 15:42 | 49.64579 | 2.78523 | 24454 ft | 458 kts | 352° |
| 2026-05-07 15:42 | 49.67744 | 2.77994 | 24936 ft | 457 kts | 352° |
| 2026-05-07 15:42 | 49.70946 | 2.77458 | 25423 ft | 456 kts | 352° |
| 2026-05-07 15:42 | 49.74061 | 2.76936 | 25923 ft | 455 kts | 352° |
| 2026-05-07 15:43 | 49.77213 | 2.76406 | 26419 ft | 455 kts | 352° |
| 2026-05-07 15:43 | 49.80393 | 2.75973 | 26901 ft | 452 kts | 358° |
| 2026-05-07 15:43 | 49.83510 | 2.76678 | 27420 ft | 457 kts | 15° |
| 2026-05-07 15:43 | 49.86363 | 2.78835 | 27932 ft | 456 kts | 32° |
| 2026-05-07 15:44 | 49.88993 | 2.81591 | 28517 ft | 457 kts | 32° |
| 2026-05-07 15:44 | 49.91646 | 2.84302 | 29069 ft | 458 kts | 31° |
| 2026-05-07 15:44 | 49.94326 | 2.86986 | 29639 ft | 459 kts | 31° |
| 2026-05-07 15:44 | 49.97017 | 2.89650 | 30196 ft | 459 kts | 30° |
| 2026-05-07 15:45 | 49.99719 | 2.92313 | 30686 ft | 459 kts | 30° |
| 2026-05-07 15:45 | 50.02421 | 2.94974 | 31179 ft | 459 kts | 30° |
| 2026-05-07 15:45 | 50.05112 | 2.97629 | 31677 ft | 458 kts | 30° |
| 2026-05-07 15:45 | 50.07798 | 3.00285 | 32188 ft | 457 kts | 30° |
| 2026-05-07 15:46 | 50.13152 | 3.05594 | 33237 ft | 454 kts | 30° |
| 2026-05-07 15:46 | 50.15776 | 3.08202 | 33785 ft | 452 kts | 30° |
| 2026-05-07 15:46 | 50.18465 | 3.10875 | 34091 ft | 454 kts | 30° |
| 2026-05-07 15:47 | 50.21101 | 3.13499 | 34050 ft | 454 kts | 30° |
| 2026-05-07 15:47 | 50.26632 | 3.18011 | 34061 ft | 445 kts | 21° |
| 2026-05-07 15:48 | 50.32318 | 3.21866 | 34074 ft | 446 kts | 20° |
| 2026-05-07 15:48 | 50.37069 | 3.25153 | 34071 ft | 447 kts | 21° |
| 2026-05-07 15:49 | 50.42733 | 3.29215 | 34078 ft | 448 kts | 24° |
| 2026-05-07 15:49 | 50.48303 | 3.33669 | 34076 ft | 449 kts | 24° |
| 2026-05-07 15:50 | 50.53918 | 3.37952 | 34068 ft | 448 kts | 21° |
| 2026-05-07 15:50 | 50.59627 | 3.41846 | 34065 ft | 447 kts | 20° |
| 2026-05-07 15:51 | 50.65342 | 3.45714 | 34074 ft | 447 kts | 21° |
| 2026-05-07 15:51 | 50.71041 | 3.49629 | 34069 ft | 447 kts | 21° |
| 2026-05-07 15:52 | 50.76790 | 3.53606 | 34071 ft | 453 kts | 21° |
| 2026-05-07 15:52 | 50.82572 | 3.57621 | 34077 ft | 454 kts | 22° |
| 2026-05-07 15:53 | 50.88357 | 3.61646 | 34066 ft | 454 kts | 22° |
| 2026-05-07 15:53 | 50.94134 | 3.65701 | 34056 ft | 453 kts | 22° |
| 2026-05-07 15:54 | 50.99867 | 3.69839 | 34058 ft | 452 kts | 22° |
| 2026-05-07 15:54 | 51.05587 | 3.73986 | 34052 ft | 451 kts | 22° |
| 2026-05-07 15:55 | 51.11300 | 3.78127 | 34058 ft | 451 kts | 22° |
| 2026-05-07 15:55 | 51.17002 | 3.82266 | 34055 ft | 450 kts | 22° |
| 2026-05-07 15:56 | 51.22703 | 3.86415 | 34056 ft | 451 kts | 22° |
| 2026-05-07 15:56 | 51.28414 | 3.90580 | 34060 ft | 451 kts | 23° |
| 2026-05-07 15:57 | 51.34121 | 3.94752 | 34060 ft | 451 kts | 23° |
| 2026-05-07 15:57 | 51.39845 | 3.98949 | 34066 ft | 451 kts | 23° |
| 2026-05-07 15:58 | 51.45537 | 4.03219 | 34065 ft | 452 kts | 27° |
| 2026-05-07 15:58 | 51.48214 | 4.05848 | 34210 ft | 450 kts | 33° |
| 2026-05-07 15:58 | 51.50699 | 4.08845 | 34784 ft | 443 kts | 39° |
| 2026-05-07 15:58 | 51.52929 | 4.12101 | 35468 ft | 434 kts | 43° |
| 2026-05-07 15:59 | 51.55096 | 4.15412 | 36167 ft | 425 kts | 43° |
| 2026-05-07 15:59 | 51.57204 | 4.18671 | 36838 ft | 417 kts | 43° |
| 2026-05-07 15:59 | 51.59294 | 4.21912 | 37110 ft | 420 kts | 43° |
| 2026-05-07 16:00 | 51.63590 | 4.28550 | 37076 ft | 436 kts | 43° |
| 2026-05-07 16:00 | 51.68059 | 4.35432 | 37072 ft | 452 kts | 43° |
| 2026-05-07 16:01 | 51.72686 | 4.42559 | 37086 ft | 467 kts | 43° |
| 2026-05-07 16:01 | 51.77452 | 4.49916 | 37087 ft | 481 kts | 43° |
| 2026-05-07 16:02 | 51.82353 | 4.57507 | 37087 ft | 493 kts | 43° |
| 2026-05-07 16:02 | 51.87339 | 4.65256 | 37079 ft | 499 kts | 43° |
| 2026-05-07 16:03 | 51.92334 | 4.73045 | 37062 ft | 498 kts | 44° |
| 2026-05-07 16:03 | 51.97332 | 4.80864 | 37083 ft | 506 kts | 44° |
| 2026-05-07 16:04 | 52.02432 | 4.88868 | 37078 ft | 513 kts | 44° |
| 2026-05-07 16:04 | 52.07589 | 4.96989 | 37071 ft | 516 kts | 44° |
| 2026-05-07 16:05 | 52.12753 | 5.05149 | 37071 ft | 518 kts | 44° |
| 2026-05-07 16:05 | 52.17916 | 5.13333 | 37078 ft | 518 kts | 44° |
| 2026-05-07 16:06 | 52.23067 | 5.21528 | 37069 ft | 516 kts | 44° |
| 2026-05-07 16:06 | 52.28193 | 5.29712 | 37069 ft | 514 kts | 44° |
| 2026-05-07 16:07 | 52.33218 | 5.37761 | 37072 ft | 512 kts | 44° |
| 2026-05-07 16:07 | 52.38287 | 5.45907 | 37076 ft | 510 kts | 44° |
| 2026-05-07 16:08 | 52.43341 | 5.54058 | 37074 ft | 509 kts | 44° |
| 2026-05-07 16:08 | 52.48391 | 5.62230 | 37076 ft | 510 kts | 45° |
| 2026-05-07 16:09 | 52.53352 | 5.70284 | 37076 ft | 511 kts | 45° |
| 2026-05-07 16:09 | 52.58315 | 5.78369 | 37073 ft | 512 kts | 45° |
| 2026-05-07 16:10 | 52.63374 | 5.86638 | 37077 ft | 512 kts | 45° |
| 2026-05-07 16:10 | 52.68457 | 5.94977 | 37069 ft | 511 kts | 45° |
| 2026-05-07 16:11 | 52.73484 | 6.03252 | 37078 ft | 509 kts | 45° |
| 2026-05-07 16:11 | 52.78490 | 6.11520 | 37064 ft | 508 kts | 45° |
| 2026-05-07 16:12 | 52.83476 | 6.19785 | 37075 ft | 507 kts | 45° |
| 2026-05-07 16:12 | 52.88461 | 6.28075 | 37063 ft | 508 kts | 45° |
| 2026-05-07 16:13 | 52.93447 | 6.36396 | 37070 ft | 509 kts | 45° |
| 2026-05-07 16:13 | 52.98430 | 6.44742 | 37073 ft | 510 kts | 45° |
| 2026-05-07 16:14 | 53.03421 | 6.53131 | 37067 ft | 511 kts | 45° |
| 2026-05-07 16:14 | 53.08412 | 6.61548 | 37081 ft | 510 kts | 46° |
| 2026-05-07 16:15 | 53.13383 | 6.69960 | 37076 ft | 509 kts | 46° |
| 2026-05-07 16:15 | 53.18315 | 6.78336 | 37077 ft | 508 kts | 45° |
| 2026-05-07 16:16 | 53.23259 | 6.86762 | 37073 ft | 508 kts | 46° |
| 2026-05-07 16:16 | 53.28199 | 6.95212 | 37079 ft | 508 kts | 46° |
| 2026-05-07 16:17 | 53.33136 | 7.03685 | 37075 ft | 508 kts | 46° |
| 2026-05-07 16:17 | 53.38073 | 7.12189 | 37075 ft | 509 kts | 46° |
| 2026-05-07 16:18 | 53.43002 | 7.20709 | 37078 ft | 509 kts | 46° |
| 2026-05-07 16:18 | 53.47860 | 7.29134 | 37061 ft | 491 kts | 46° |
| 2026-05-07 16:18 | 53.50203 | 7.33209 | 37055 ft | 477 kts | 46° |
| 2026-05-07 16:19 | 53.52489 | 7.37191 | 37075 ft | 472 kts | 46° |
| 2026-05-07 16:19 | 53.57011 | 7.45089 | 37075 ft | 464 kts | 46° |
| 2026-05-07 16:20 | 53.61464 | 7.52892 | 37076 ft | 461 kts | 46° |
| 2026-05-07 16:20 | 53.65927 | 7.60737 | 37088 ft | 467 kts | 46° |
| 2026-05-07 16:21 | 53.70437 | 7.68692 | 37084 ft | 470 kts | 46° |
| 2026-05-07 16:21 | 53.74962 | 7.76697 | 37090 ft | 471 kts | 46° |
| 2026-05-07 16:22 | 53.79432 | 7.84632 | 37072 ft | 460 kts | 47° |
| 2026-05-07 16:22 | 53.83834 | 7.92473 | 37088 ft | 462 kts | 46° |
| 2026-05-07 16:23 | 53.88289 | 8.00435 | 37107 ft | 469 kts | 46° |
| 2026-05-07 16:23 | 53.92058 | 8.07191 | 37107 ft | 476 kts | 46° |
| 2026-05-07 16:24 | 53.96597 | 8.15353 | 37103 ft | 475 kts | 47° |
| 2026-05-07 16:24 | 54.01147 | 8.23562 | 37099 ft | 479 kts | 47° |
| 2026-05-07 16:25 | 54.05725 | 8.31851 | 37095 ft | 482 kts | 47° |
| 2026-05-07 16:25 | 54.10324 | 8.40205 | 37097 ft | 484 kts | 47° |
| 2026-05-07 16:26 | 54.14928 | 8.48599 | 37103 ft | 484 kts | 47° |
| 2026-05-07 16:26 | 54.19484 | 8.56934 | 37087 ft | 484 kts | 47° |
| 2026-05-07 16:27 | 54.24084 | 8.65378 | 37096 ft | 482 kts | 47° |
| 2026-05-07 16:27 | 54.28619 | 8.73732 | 37097 ft | 480 kts | 47° |
| 2026-05-07 16:28 | 54.33149 | 8.82107 | 37092 ft | 479 kts | 47° |
| 2026-05-07 16:28 | 54.37676 | 8.90506 | 37092 ft | 478 kts | 47° |
| 2026-05-07 16:29 | 54.42179 | 8.98888 | 37101 ft | 478 kts | 47° |
| 2026-05-07 16:29 | 54.46682 | 9.07301 | 37098 ft | 478 kts | 47° |
| 2026-05-07 16:30 | 54.51183 | 9.15738 | 37093 ft | 478 kts | 47° |
| 2026-05-07 16:30 | 54.55680 | 9.24199 | 37101 ft | 479 kts | 47° |
| 2026-05-07 16:31 | 54.60184 | 9.32702 | 37107 ft | 481 kts | 47° |
| 2026-05-07 16:31 | 54.64663 | 9.41189 | 37108 ft | 482 kts | 47° |
| 2026-05-07 16:32 | 54.69165 | 9.49750 | 37106 ft | 482 kts | 47° |
| 2026-05-07 16:32 | 54.73674 | 9.58355 | 37107 ft | 481 kts | 47° |
| 2026-05-07 16:33 | 54.78157 | 9.66940 | 37105 ft | 481 kts | 47° |
| 2026-05-07 16:33 | 54.82630 | 9.75534 | 37106 ft | 479 kts | 47° |
| 2026-05-07 16:34 | 54.87238 | 9.83895 | 37135 ft | 479 kts | 45° |
| 2026-05-07 16:34 | 54.91869 | 9.91954 | 37115 ft | 459 kts | 45° |
| 2026-05-07 16:34 | 54.94090 | 9.95834 | 37109 ft | 447 kts | 45° |
| 2026-05-07 16:35 | 54.96271 | 9.99670 | 37124 ft | 444 kts | 45° |
| 2026-05-07 16:35 | 55.00617 | 10.07381 | 37123 ft | 443 kts | 45° |
| 2026-05-07 16:36 | 55.04883 | 10.15007 | 37121 ft | 442 kts | 45° |
| 2026-05-07 16:36 | 55.09196 | 10.22749 | 37122 ft | 442 kts | 45° |
| 2026-05-07 16:37 | 55.13483 | 10.30468 | 37120 ft | 443 kts | 45° |
| 2026-05-07 16:37 | 55.17748 | 10.38170 | 37122 ft | 444 kts | 45° |
| 2026-05-07 16:38 | 55.22051 | 10.45966 | 37126 ft | 445 kts | 45° |
| 2026-05-07 16:38 | 55.26353 | 10.53788 | 37125 ft | 446 kts | 46° |
| 2026-05-07 16:39 | 55.30654 | 10.61633 | 37123 ft | 446 kts | 46° |
| 2026-05-07 16:39 | 55.34960 | 10.69512 | 37124 ft | 447 kts | 46° |
| 2026-05-07 16:40 | 55.39286 | 10.77455 | 37121 ft | 447 kts | 46° |
| 2026-05-07 16:40 | 55.43564 | 10.85337 | 37119 ft | 447 kts | 46° |
| 2026-05-07 16:41 | 55.47851 | 10.93262 | 37118 ft | 447 kts | 46° |
| 2026-05-07 16:41 | 55.52142 | 11.01221 | 37119 ft | 446 kts | 46° |
| 2026-05-07 16:42 | 55.56413 | 11.09170 | 37117 ft | 446 kts | 46° |
| 2026-05-07 16:42 | 55.60708 | 11.17190 | 37118 ft | 446 kts | 46° |
| 2026-05-07 16:43 | 55.64942 | 11.25125 | 37113 ft | 446 kts | 46° |
| 2026-05-07 16:43 | 55.69223 | 11.33174 | 37119 ft | 445 kts | 46° |
| 2026-05-07 16:44 | 55.73489 | 11.41223 | 37122 ft | 446 kts | 46° |
| 2026-05-07 16:44 | 55.77736 | 11.49263 | 37121 ft | 446 kts | 46° |
| 2026-05-07 16:45 | 55.81979 | 11.57322 | 37128 ft | 446 kts | 46° |
| 2026-05-07 16:45 | 55.86220 | 11.65405 | 37125 ft | 447 kts | 46° |
| 2026-05-07 16:46 | 55.90458 | 11.73510 | 37127 ft | 447 kts | 46° |
| 2026-05-07 16:46 | 55.94705 | 11.81662 | 37125 ft | 448 kts | 46° |
| 2026-05-07 16:47 | 55.98939 | 11.89815 | 37127 ft | 448 kts | 46° |
| 2026-05-07 16:47 | 56.03143 | 11.97940 | 37131 ft | 448 kts | 46° |
| 2026-05-07 16:48 | 56.07382 | 12.06160 | 37123 ft | 449 kts | 46° |
| 2026-05-07 16:48 | 56.11606 | 12.14381 | 37128 ft | 449 kts | 46° |
| 2026-05-07 16:49 | 56.15826 | 12.22622 | 37127 ft | 449 kts | 46° |
| 2026-05-07 16:49 | 56.20047 | 12.30893 | 37128 ft | 449 kts | 47° |
| 2026-05-07 16:50 | 56.24261 | 12.39180 | 37131 ft | 449 kts | 46° |
| 2026-05-07 16:50 | 56.28475 | 12.47496 | 37113 ft | 449 kts | 46° |
| 2026-05-07 16:51 | 56.32683 | 12.55831 | 37112 ft | 450 kts | 47° |
| 2026-05-07 16:51 | 56.36890 | 12.64192 | 37109 ft | 450 kts | 47° |
| 2026-05-07 16:52 | 56.41016 | 12.72420 | 37109 ft | 450 kts | 47° |
| 2026-05-07 16:52 | 56.45210 | 12.80817 | 37104 ft | 450 kts | 46° |
| 2026-05-07 16:53 | 56.49404 | 12.89239 | 37118 ft | 451 kts | 47° |
| 2026-05-07 16:53 | 56.53604 | 12.97706 | 37111 ft | 451 kts | 46° |
| 2026-05-07 16:54 | 56.57798 | 13.06193 | 37116 ft | 452 kts | 47° |
| 2026-05-07 16:54 | 56.61999 | 13.14721 | 37117 ft | 453 kts | 47° |
| 2026-05-07 16:55 | 56.66189 | 13.23260 | 37118 ft | 453 kts | 47° |
| 2026-05-07 16:55 | 56.70389 | 13.31851 | 37118 ft | 453 kts | 47° |
| 2026-05-07 16:56 | 56.74575 | 13.40442 | 37105 ft | 453 kts | 47° |
| 2026-05-07 16:56 | 56.80134 | 13.51902 | 37106 ft | 452 kts | 47° |
| 2026-05-07 16:57 | 56.84293 | 13.60510 | 37101 ft | 452 kts | 47° |
| 2026-05-07 16:57 | 56.88445 | 13.69138 | 37093 ft | 452 kts | 47° |
| 2026-05-07 16:58 | 56.92594 | 13.77791 | 37085 ft | 452 kts | 47° |
| 2026-05-07 16:58 | 56.96740 | 13.86467 | 37095 ft | 452 kts | 47° |
| 2026-05-07 16:59 | 57.00888 | 13.95180 | 37084 ft | 453 kts | 47° |
| 2026-05-07 16:59 | 57.05025 | 14.03903 | 37078 ft | 453 kts | 47° |
| 2026-05-07 17:00 | 57.09162 | 14.12659 | 37056 ft | 454 kts | 47° |
| 2026-05-07 17:00 | 57.13294 | 14.21436 | 37066 ft | 454 kts | 47° |
| 2026-05-07 17:01 | 57.17430 | 14.30256 | 37058 ft | 455 kts | 47° |
| 2026-05-07 17:01 | 57.21572 | 14.39119 | 37047 ft | 456 kts | 47° |
| 2026-05-07 17:02 | 57.25679 | 14.47939 | 37055 ft | 456 kts | 47° |
| 2026-05-07 17:02 | 57.29810 | 14.56849 | 37066 ft | 457 kts | 47° |
| 2026-05-07 17:03 | 57.33942 | 14.65791 | 37069 ft | 457 kts | 47° |
| 2026-05-07 17:03 | 57.38080 | 14.74781 | 37076 ft | 458 kts | 47° |
| 2026-05-07 17:04 | 57.42205 | 14.83778 | 37072 ft | 458 kts | 47° |
| 2026-05-07 17:04 | 57.46321 | 14.92790 | 37070 ft | 456 kts | 47° |
| 2026-05-07 17:05 | 57.50443 | 15.01848 | 37078 ft | 455 kts | 47° |
| 2026-05-07 17:05 | 57.54512 | 15.10825 | 37076 ft | 453 kts | 47° |
| 2026-05-07 17:06 | 57.58582 | 15.19836 | 37092 ft | 453 kts | 47° |
| 2026-05-07 17:06 | 57.62621 | 15.28816 | 37080 ft | 453 kts | 47° |
| 2026-05-07 17:07 | 57.66680 | 15.37871 | 37093 ft | 455 kts | 48° |
| 2026-05-07 17:07 | 57.70743 | 15.46971 | 37096 ft | 457 kts | 48° |
| 2026-05-07 17:08 | 57.74813 | 15.56124 | 37100 ft | 459 kts | 48° |
| 2026-05-07 17:08 | 57.78899 | 15.65348 | 37102 ft | 460 kts | 48° |
| 2026-05-07 17:09 | 57.82950 | 15.74532 | 37106 ft | 460 kts | 48° |
| 2026-05-07 17:09 | 57.87056 | 15.83871 | 37106 ft | 460 kts | 48° |
| 2026-05-07 17:10 | 57.91242 | 15.92834 | 37102 ft | 457 kts | 41° |
| 2026-05-07 17:10 | 57.96118 | 16.00420 | 37108 ft | 453 kts | 35° |
| 2026-05-07 17:11 | 58.01138 | 16.07715 | 37115 ft | 453 kts | 35° |
| 2026-05-07 17:11 | 58.06082 | 16.15000 | 36959 ft | 457 kts | 35° |
| 2026-05-07 17:12 | 58.08597 | 16.18742 | 36339 ft | 460 kts | 35° |
| 2026-05-07 17:12 | 58.11109 | 16.22500 | 35736 ft | 461 kts | 35° |
| 2026-05-07 17:12 | 58.13619 | 16.26265 | 35132 ft | 460 kts | 34° |
| 2026-05-07 17:12 | 58.16128 | 16.30035 | 34541 ft | 460 kts | 34° |
| 2026-05-07 17:13 | 58.18636 | 16.33810 | 33944 ft | 459 kts | 34° |
| 2026-05-07 17:13 | 58.21127 | 16.37561 | 33261 ft | 457 kts | 34° |
| 2026-05-07 17:13 | 58.23600 | 16.41292 | 32570 ft | 448 kts | 34° |
| 2026-05-07 17:13 | 58.25994 | 16.44957 | 31830 ft | 438 kts | 36° |
| 2026-05-07 17:14 | 58.28186 | 16.48915 | 31062 ft | 432 kts | 42° |
| 2026-05-07 17:14 | 58.30130 | 16.53246 | 30296 ft | 428 kts | 49° |
| 2026-05-07 17:14 | 58.31891 | 16.57742 | 29452 ft | 421 kts | 50° |
| 2026-05-07 17:14 | 58.33611 | 16.62207 | 28624 ft | 414 kts | 50° |
| 2026-05-07 17:15 | 58.35297 | 16.66599 | 27808 ft | 407 kts | 50° |
| 2026-05-07 17:15 | 58.36968 | 16.70937 | 27036 ft | 409 kts | 50° |
| 2026-05-07 17:15 | 58.38673 | 16.75342 | 26301 ft | 416 kts | 50° |
| 2026-05-07 17:15 | 58.40405 | 16.79813 | 25564 ft | 421 kts | 50° |
| 2026-05-07 17:16 | 58.42156 | 16.84333 | 24854 ft | 426 kts | 50° |
| 2026-05-07 17:16 | 58.43922 | 16.88901 | 24162 ft | 429 kts | 50° |
| 2026-05-07 17:16 | 58.45677 | 16.93449 | 23551 ft | 430 kts | 50° |
| 2026-05-07 17:16 | 58.47448 | 16.98047 | 22884 ft | 430 kts | 50° |
| 2026-05-07 17:17 | 58.49215 | 17.02646 | 22223 ft | 430 kts | 50° |
| 2026-05-07 17:17 | 58.50981 | 17.07249 | 21559 ft | 425 kts | 50° |
| 2026-05-07 17:17 | 58.52693 | 17.11731 | 20876 ft | 408 kts | 50° |
| 2026-05-07 17:17 | 58.54336 | 17.16041 | 20209 ft | 393 kts | 51° |
| 2026-05-07 17:18 | 58.55924 | 17.20205 | 19580 ft | 383 kts | 51° |
| 2026-05-07 17:18 | 58.57477 | 17.24281 | 18967 ft | 374 kts | 51° |
| 2026-05-07 17:18 | 58.58995 | 17.28269 | 18366 ft | 367 kts | 51° |
| 2026-05-07 17:18 | 58.60492 | 17.32207 | 17678 ft | 362 kts | 51° |
| 2026-05-07 17:19 | 58.61962 | 17.36083 | 16999 ft | 356 kts | 51° |
| 2026-05-07 17:19 | 58.63414 | 17.39917 | 16356 ft | 352 kts | 51° |
| 2026-05-07 17:19 | 58.64843 | 17.43696 | 15711 ft | 347 kts | 51° |
| 2026-05-07 17:19 | 58.66233 | 17.47380 | 15091 ft | 343 kts | 51° |
| 2026-05-07 17:20 | 58.67642 | 17.51118 | 14470 ft | 340 kts | 51° |
| 2026-05-07 17:20 | 58.69018 | 17.54777 | 13875 ft | 336 kts | 51° |
| 2026-05-07 17:20 | 58.70384 | 17.58415 | 13194 ft | 335 kts | 51° |
| 2026-05-07 17:20 | 58.71726 | 17.61994 | 12547 ft | 333 kts | 51° |
| 2026-05-07 17:21 | 58.73091 | 17.65641 | 11902 ft | 330 kts | 51° |
| 2026-05-07 17:21 | 58.74402 | 17.69148 | 11375 ft | 323 kts | 51° |
| 2026-05-07 17:21 | 58.75747 | 17.72750 | 11207 ft | 329 kts | 51° |
| 2026-05-07 17:21 | 58.77055 | 17.76257 | 11129 ft | 324 kts | 51° |
| 2026-05-07 17:22 | 58.78386 | 17.79733 | 11124 ft | 319 kts | 45° |
| 2026-05-07 17:22 | 58.80098 | 17.82348 | 11125 ft | 313 kts | 24° |
| 2026-05-07 17:22 | 58.82074 | 17.84111 | 11135 ft | 313 kts | 19° |
| 2026-05-07 17:22 | 58.84095 | 17.85674 | 11131 ft | 312 kts | 18° |
| 2026-05-07 17:23 | 58.86120 | 17.87198 | 11122 ft | 312 kts | 17° |
| 2026-05-07 17:23 | 58.88144 | 17.88715 | 11123 ft | 312 kts | 17° |
| 2026-05-07 17:23 | 58.90170 | 17.90227 | 11122 ft | 312 kts | 17° |
| 2026-05-07 17:23 | 58.92192 | 17.91733 | 11120 ft | 311 kts | 17° |
| 2026-05-07 17:24 | 58.94241 | 17.93261 | 11143 ft | 312 kts | 17° |
| 2026-05-07 17:24 | 58.96266 | 17.94781 | 11127 ft | 312 kts | 17° |
| 2026-05-07 17:24 | 58.98280 | 17.96296 | 11123 ft | 312 kts | 17° |
| 2026-05-07 17:24 | 59.00309 | 17.97826 | 11127 ft | 312 kts | 17° |
| 2026-05-07 17:25 | 59.02334 | 17.99356 | 11121 ft | 312 kts | 17° |
| 2026-05-07 17:25 | 59.04351 | 18.00880 | 11121 ft | 312 kts | 17° |
| 2026-05-07 17:25 | 59.06350 | 18.02392 | 11128 ft | 312 kts | 17° |
| 2026-05-07 17:25 | 59.08372 | 18.03925 | 11111 ft | 312 kts | 17° |
| 2026-05-07 17:26 | 59.10400 | 18.05462 | 10783 ft | 314 kts | 17° |
| 2026-05-07 17:26 | 59.12439 | 18.07003 | 10161 ft | 312 kts | 17° |
| 2026-05-07 17:26 | 59.14441 | 18.08515 | 9498 ft | 305 kts | 18° |
| 2026-05-07 17:26 | 59.16402 | 18.09983 | 8816 ft | 298 kts | 18° |
| 2026-05-07 17:27 | 59.18330 | 18.11404 | 8370 ft | 296 kts | 18° |
| 2026-05-07 17:27 | 59.20260 | 18.12800 | 8203 ft | 295 kts | 17° |
| 2026-05-07 17:27 | 59.22175 | 18.14180 | 8126 ft | 291 kts | 17° |
| 2026-05-07 17:27 | 59.24069 | 18.15541 | 8139 ft | 291 kts | 17° |
| 2026-05-07 17:28 | 59.25976 | 18.16911 | 8131 ft | 293 kts | 17° |
| 2026-05-07 17:28 | 59.27864 | 18.18268 | 8120 ft | 284 kts | 17° |
| 2026-05-07 17:28 | 59.29683 | 18.19581 | 8110 ft | 273 kts | 17° |
| 2026-05-07 17:28 | 59.31422 | 18.20842 | 8118 ft | 270 kts | 17° |
| 2026-05-07 17:29 | 59.33192 | 18.22128 | 8131 ft | 271 kts | 17° |
| 2026-05-07 17:29 | 59.34963 | 18.23420 | 8131 ft | 272 kts | 17° |
| 2026-05-07 17:29 | 59.36743 | 18.24682 | 8120 ft | 268 kts | 13° |
| 2026-05-07 17:29 | 59.38564 | 18.25338 | 8138 ft | 267 kts | 4° |
| 2026-05-07 17:30 | 59.40410 | 18.25717 | 8137 ft | 267 kts | 3° |
| 2026-05-07 17:30 | 59.42268 | 18.26059 | 8127 ft | 268 kts | 2° |
| 2026-05-07 17:30 | 59.44129 | 18.26395 | 8135 ft | 269 kts | 2° |
| 2026-05-07 17:30 | 59.45993 | 18.26724 | 8119 ft | 269 kts | 2° |
| 2026-05-07 17:31 | 59.47863 | 18.27051 | 8132 ft | 270 kts | 2° |
| 2026-05-07 17:31 | 59.49735 | 18.27375 | 8133 ft | 270 kts | 2° |
| 2026-05-07 17:31 | 59.51605 | 18.27625 | 8108 ft | 270 kts | 359° |
| 2026-05-07 17:31 | 59.53504 | 18.27668 | 7754 ft | 276 kts | 358° |
| 2026-05-07 17:32 | 59.55446 | 18.27652 | 7248 ft | 282 kts | 358° |
| 2026-05-07 17:32 | 59.57418 | 18.27612 | 6761 ft | 286 kts | 358° |
| 2026-05-07 17:32 | 59.59417 | 18.27444 | 6239 ft | 289 kts | 354° |
| 2026-05-07 17:32 | 59.60748 | 18.27165 | 5886 ft | 291 kts | 352° |
| 2026-05-07 17:33 | 59.63448 | 18.26491 | 5296 ft | 292 kts | 352° |
| 2026-05-07 17:33 | 59.65431 | 18.25977 | 5118 ft | 283 kts | 352° |
| 2026-05-07 17:33 | 59.67285 | 18.25496 | 5005 ft | 253 kts | 352° |
| 2026-05-07 17:33 | 59.68954 | 18.25105 | 4991 ft | 234 kts | 352° |
| 2026-05-07 17:34 | 59.70545 | 18.24434 | 5003 ft | 236 kts | 340° |
| 2026-05-07 17:34 | 59.72112 | 18.23284 | 4787 ft | 244 kts | 338° |
| 2026-05-07 17:34 | 59.73703 | 18.22037 | 4260 ft | 247 kts | 338° |
| 2026-05-07 17:34 | 59.74755 | 18.21205 | 3927 ft | 245 kts | 338° |
| 2026-05-07 17:35 | 59.76851 | 18.19531 | 3204 ft | 238 kts | 338° |
| 2026-05-07 17:35 | 59.77857 | 18.18723 | 2845 ft | 234 kts | 338° |
| 2026-05-07 17:35 | 59.79317 | 18.17379 | 2303 ft | 229 kts | 325° |
| 2026-05-07 17:35 | 59.80286 | 18.14964 | 2064 ft | 229 kts | 290° |
| 2026-05-07 17:36 | 59.80593 | 18.11892 | 2016 ft | 224 kts | 277° |
| 2026-05-07 17:36 | 59.80798 | 18.08839 | 2002 ft | 221 kts | 277° |
| 2026-05-07 17:36 | 59.80986 | 18.05838 | 1992 ft | 219 kts | 271° |
| 2026-05-07 17:36 | 59.80645 | 18.02966 | 1999 ft | 213 kts | 236° |
| 2026-05-07 17:37 | 59.79653 | 18.00905 | 1994 ft | 203 kts | 218° |
| 2026-05-07 17:37 | 59.78486 | 17.99381 | 1995 ft | 200 kts | 198° |
| 2026-05-07 17:37 | 59.77126 | 17.98718 | 2030 ft | 203 kts | 189° |
| 2026-05-07 17:37 | 59.75746 | 17.98162 | 2008 ft | 200 kts | 189° |
| 2026-05-07 17:38 | 59.74381 | 17.97859 | 2031 ft | 191 kts | 178° |
| 2026-05-07 17:38 | 59.73071 | 17.98051 | 1854 ft | 188 kts | 174° |
| 2026-05-07 17:38 | 59.71762 | 17.98291 | 1562 ft | 189 kts | 182° |
| 2026-05-07 17:38 | 59.70486 | 17.97960 | 1243 ft | 186 kts | 187° |
| 2026-05-07 17:39 | 59.69219 | 17.97509 | 934 ft | 184 kts | 189° |
| 2026-05-07 17:39 | 59.67969 | 17.96997 | 677 ft | 183 kts | 188° |
| 2026-05-07 17:39 | 59.66715 | 17.96539 | 465 ft | 181 kts | 186° |
| 2026-05-07 17:39 | 59.65538 | 17.96126 | 191 ft | 164 kts | 186° |
| 2026-05-07 17:40 | 59.64477 | 17.95758 | 114 ft | 139 kts | 191° |
| 2026-05-07 17:40 | 59.63958 | 17.95559 | 115 ft | 53 kts | 189° |
| 2026-05-07 17:40 | 59.63696 | 17.95460 | 120 ft | 32 kts | 191° |
| 2026-05-07 17:40 | 59.63488 | 17.95371 | 125 ft | 30 kts | 198° |
| 2026-05-07 17:41 | 59.63329 | 17.95181 | 124 ft | 10 kts | 220° |
| 2026-05-07 17:41 | 59.63292 | 17.95119 | 124 ft | 4 kts | 220° |
| 2026-05-07 17:41 | 59.63268 | 17.95076 | 124 ft | 5 kts | 223° |
| 2026-05-07 17:41 | 59.63260 | 17.95061 | 124 ft | 1 kts | 226° |
| 2026-05-07 17:42 | 59.63255 | 17.95050 | 124 ft | 1 kts | 226° |
| 2026-05-07 17:42 | 59.63248 | 17.95035 | 125 ft | 2 kts | 232° |
| 2026-05-07 17:42 | 59.63241 | 17.94951 | 126 ft | 6 kts | 279° |
| 2026-05-07 17:42 | 59.63273 | 17.94907 | 128 ft | 8 kts | 352° |
| 2026-05-07 17:43 | 59.63345 | 17.94922 | 124 ft | 12 kts | 10° |
| 2026-05-07 17:43 | 59.63433 | 17.94956 | 123 ft | 14 kts | 11° |
| 2026-05-07 17:43 | 59.63541 | 17.94998 | 118 ft | 17 kts | 11° |
| 2026-05-07 17:43 | 59.63648 | 17.95036 | 114 ft | 16 kts | 10° |
| 2026-05-07 17:44 | 59.63747 | 17.95070 | 114 ft | 15 kts | 9° |
| 2026-05-07 17:44 | 59.63844 | 17.95103 | 112 ft | 12 kts | 10° |
| 2026-05-07 17:44 | 59.63931 | 17.95139 | 112 ft | 13 kts | 13° |
| 2026-05-07 17:44 | 59.64025 | 17.95170 | 111 ft | 14 kts | 11° |
| 2026-05-07 17:45 | 59.64124 | 17.95208 | 109 ft | 15 kts | 11° |
| 2026-05-07 17:45 | 59.64226 | 17.95232 | 108 ft | 15 kts | 359° |
| 2026-05-07 17:45 | 59.64326 | 17.95168 | 110 ft | 16 kts | 324° |
| 2026-05-07 17:45 | 59.64393 | 17.94988 | 108 ft | 17 kts | 289° |
| 2026-05-07 17:46 | 59.64390 | 17.94760 | 108 ft | 17 kts | 251° |
| 2026-05-07 17:46 | 59.64334 | 17.94558 | 108 ft | 17 kts | 237° |
| 2026-05-07 17:46 | 59.64271 | 17.94360 | 108 ft | 17 kts | 238° |
| 2026-05-07 17:46 | 59.64209 | 17.94163 | 109 ft | 17 kts | 238° |
| 2026-05-07 17:47 | 59.64145 | 17.93967 | 109 ft | 17 kts | 237° |
| 2026-05-07 17:47 | 59.64084 | 17.93770 | 113 ft | 17 kts | 238° |
| 2026-05-07 17:47 | 59.64020 | 17.93572 | 113 ft | 17 kts | 238° |
| 2026-05-07 17:47 | 59.63990 | 17.93355 | 112 ft | 17 kts | 271° |
| 2026-05-07 17:48 | 59.64028 | 17.93143 | 114 ft | 15 kts | 289° |
| 2026-05-07 17:48 | 59.63986 | 17.93001 | 112 ft | 11 kts | 215° |
| 2026-05-07 17:48 | 59.63923 | 17.92933 | 113 ft | 8 kts | 207° |
| 2026-05-07 17:48 | 59.63911 | 17.92920 | 113 ft | 0 kts | 207° |